createdAt,value
2022-08-26T00:01:53.976Z,15.47
2022-08-26T00:04:23.613Z,13.83
2022-08-26T00:06:51.507Z,12.07
2022-08-26T00:09:18.622Z,13.33
2022-08-26T00:11:45.918Z,14.17
2022-08-26T00:14:14.162Z,15.10
2022-08-26T00:16:47.929Z,15.00
2022-08-26T00:19:20.620Z,14.10
2022-08-26T00:21:49.759Z,14.17
2022-08-26T00:24:19.214Z,15.20
2022-08-26T00:26:46.845Z,17.43
2022-08-26T00:29:13.898Z,16.77
2022-08-26T00:31:42.624Z,16.27
2022-08-26T00:34:12.606Z,15.60
2022-08-26T00:36:41.009Z,17.93
2022-08-26T00:39:09.063Z,15.47
2022-08-26T00:41:40.528Z,16.33
2022-08-26T00:44:10.995Z,14.87
2022-08-26T00:46:55.767Z,16.77
2022-08-26T00:49:34.922Z,14.97
2022-08-26T00:52:05.822Z,14.77
2022-08-26T00:54:46.763Z,13.53
2022-08-26T00:57:17.912Z,10.53
2022-08-26T00:59:54.333Z,11.53
2022-08-26T01:02:21.811Z,11.70
2022-08-26T01:04:57.959Z,12.63
2022-08-26T01:07:31.281Z,15.77
2022-08-26T01:10:01.384Z,14.60
2022-08-26T01:12:32.309Z,15.33
2022-08-26T01:14:59.849Z,14.63
2022-08-26T01:17:26.716Z,15.63
2022-08-26T01:20:04.836Z,15.00
2022-08-26T01:22:56.625Z,14.30
2022-08-26T01:25:26.762Z,12.90
2022-08-26T01:27:57.705Z,12.83
2022-08-26T01:30:29.409Z,14.03
2022-08-26T01:32:59.726Z,13.20
2022-08-26T01:35:28.001Z,11.90
2022-08-26T01:37:56.584Z,10.30
2022-08-26T01:40:31.954Z,12.17
2022-08-26T01:43:02.137Z,11.33
2022-08-26T01:45:33.750Z,10.83
2022-08-26T01:48:05.044Z,12.27
2022-08-26T01:50:35.169Z,9.63
2022-08-26T01:53:07.706Z,10.17
2022-08-26T01:55:39.702Z,12.73
2022-08-26T01:58:17.552Z,10.13
2022-08-26T02:00:46.526Z,11.87
2022-08-26T02:03:21.523Z,12.23
2022-08-26T02:06:00.132Z,12.27
2022-08-26T02:08:37.287Z,17.70
2022-08-26T02:11:05.016Z,13.30
2022-08-26T02:13:35.989Z,13.07
2022-08-26T02:16:03.891Z,13.37
2022-08-26T02:18:36.955Z,11.60
2022-08-26T02:21:06.634Z,11.53
2022-08-26T02:23:33.914Z,11.53
2022-08-26T02:26:14.360Z,9.23
2022-08-26T02:29:31.614Z,9.13
2022-08-26T02:31:59.097Z,7.47
2022-08-26T02:34:32.193Z,10.13
2022-08-26T02:37:03.420Z,8.47
2022-08-26T02:39:31.709Z,9.10
2022-08-26T02:41:59.201Z,8.40
2022-08-26T02:44:27.258Z,10.67
2022-08-26T02:46:54.993Z,11.07
2022-08-26T02:49:23.691Z,14.00
2022-08-26T02:51:51.995Z,16.10
2022-08-26T02:54:21.508Z,14.30
2022-08-26T02:56:49.088Z,12.50
2022-08-26T02:59:16.056Z,14.00
2022-08-26T03:01:45.012Z,13.00
2022-08-26T03:04:13.100Z,9.43
2022-08-26T03:06:41.542Z,8.70
2022-08-26T03:09:09.762Z,7.40
2022-08-26T03:11:37.604Z,9.10
2022-08-26T03:14:05.017Z,16.03
2022-08-26T03:16:35.277Z,16.47
2022-08-26T03:19:05.389Z,13.57
2022-08-26T03:21:33.982Z,16.47
2022-08-26T03:24:03.724Z,17.47
2022-08-26T03:26:31.129Z,16.37
2022-08-26T03:29:16.660Z,17.33
2022-08-26T03:31:43.619Z,16.77
2022-08-26T03:34:14.144Z,17.60
2022-08-26T03:36:42.056Z,13.07
2022-08-26T03:39:11.093Z,12.30
2022-08-26T03:41:38.694Z,12.00
2022-08-26T03:44:08.777Z,12.40
2022-08-26T03:46:36.691Z,14.20
2022-08-26T03:49:07.683Z,16.30
2022-08-26T03:51:38.716Z,16.33
2022-08-26T03:54:08.320Z,17.43
2022-08-26T03:56:36.554Z,14.83
2022-08-26T03:59:04.299Z,16.87
2022-08-26T04:01:31.828Z,18.17
2022-08-26T04:04:00.045Z,19.00
2022-08-26T04:06:38.651Z,18.57
2022-08-26T04:09:20.900Z,23.47
2022-08-26T04:11:50.331Z,19.17
2022-08-26T04:14:23.602Z,21.73
2022-08-26T04:16:52.512Z,17.97
2022-08-26T04:19:20.642Z,19.77
2022-08-26T04:21:51.918Z,17.93
2022-08-26T04:24:22.184Z,19.87
2022-08-26T04:26:49.163Z,19.87
2022-08-26T04:29:21.488Z,22.30
2022-08-26T04:31:48.645Z,20.40
2022-08-26T04:34:17.181Z,14.67
2022-08-26T04:36:45.099Z,11.50
2022-08-26T04:39:14.880Z,14.20
2022-08-26T04:41:41.738Z,13.23
2022-08-26T04:44:08.626Z,11.13
2022-08-26T04:46:36.443Z,11.53
2022-08-26T04:49:11.277Z,10.57
2022-08-26T04:51:39.282Z,11.57
2022-08-26T04:54:07.406Z,14.10
2022-08-26T04:56:40.067Z,19.33
2022-08-26T04:59:16.509Z,14.53
2022-08-26T05:01:52.858Z,14.10
2022-08-26T05:04:20.909Z,11.63
2022-08-26T05:06:49.272Z,11.50
2022-08-26T05:09:18.519Z,11.37
2022-08-26T05:11:48.414Z,12.97
2022-08-26T05:14:20.273Z,10.47
2022-08-26T05:16:47.985Z,11.23
2022-08-26T05:19:18.927Z,11.97
2022-08-26T05:21:47.699Z,12.37
2022-08-26T05:24:15.498Z,10.60
2022-08-26T05:26:44.620Z,12.40
2022-08-26T05:29:12.316Z,12.10
2022-08-26T05:31:39.190Z,9.17
2022-08-26T05:34:06.146Z,10.40
2022-08-26T05:36:35.522Z,10.47
2022-08-26T05:39:04.564Z,10.37
2022-08-26T05:41:38.305Z,10.40
2022-08-26T05:44:11.070Z,11.30
2022-08-26T05:46:40.259Z,12.23
2022-08-26T05:49:12.646Z,8.30
2022-08-26T05:51:41.812Z,10.07
2022-08-26T05:54:10.573Z,8.67
2022-08-26T05:56:39.188Z,8.70
2022-08-26T05:59:08.107Z,8.63
2022-08-26T06:01:42.798Z,10.63
2022-08-26T06:04:10.589Z,8.50
2022-08-26T06:06:41.221Z,9.47
2022-08-26T06:09:11.189Z,11.90
2022-08-26T06:11:39.159Z,12.57
2022-08-26T06:14:07.873Z,12.07
2022-08-26T06:16:38.736Z,12.37
2022-08-26T06:19:11.484Z,12.87
2022-08-26T06:21:41.834Z,16.17
2022-08-26T06:24:32.786Z,14.03
2022-08-26T06:27:08.251Z,15.30
2022-08-26T06:29:36.261Z,13.77
2022-08-26T06:32:05.391Z,13.53
2022-08-26T06:34:32.796Z,14.63
2022-08-26T06:37:06.420Z,16.60
2022-08-26T06:39:33.549Z,17.03
2022-08-26T06:42:02.686Z,15.20
2022-08-26T06:44:30.544Z,16.83
2022-08-26T06:46:59.191Z,15.40
2022-08-26T06:49:27.322Z,16.10
2022-08-26T06:51:58.842Z,21.07
2022-08-26T06:54:27.511Z,16.57
2022-08-26T06:56:56.801Z,16.47
2022-08-26T06:59:24.198Z,16.10
2022-08-26T07:01:52.225Z,17.70
2022-08-26T07:04:21.864Z,18.13
2022-08-26T07:06:52.399Z,20.67
2022-08-26T07:09:23.133Z,22.83
2022-08-26T07:11:51.798Z,16.57
2022-08-26T07:14:21.698Z,22.33
2022-08-26T07:16:50.013Z,23.80
2022-08-26T07:19:29.861Z,20.70
2022-08-26T07:22:04.447Z,21.40
2022-08-26T07:24:40.207Z,20.73
2022-08-26T07:27:14.025Z,23.40
2022-08-26T07:29:43.372Z,21.73
2022-08-26T07:32:13.637Z,22.73
2022-08-26T07:34:41.805Z,26.47
2022-08-26T07:37:09.073Z,19.20
2022-08-26T07:39:36.157Z,21.37
2022-08-26T07:42:08.049Z,23.10
2022-08-26T07:44:37.215Z,15.87
2022-08-26T07:47:04.240Z,18.03
2022-08-26T07:49:46.248Z,17.50
2022-08-26T07:52:14.828Z,19.27
2022-08-26T07:54:41.742Z,21.50
2022-08-26T07:57:09.401Z,24.27
2022-08-26T07:59:37.078Z,23.53
2022-08-26T08:02:04.768Z,18.83
2022-08-26T08:04:31.641Z,19.17
2022-08-26T08:06:58.559Z,20.17
2022-08-26T08:09:26.053Z,15.40
2022-08-26T08:11:54.263Z,19.57
2022-08-26T08:14:22.235Z,16.27
2022-08-26T08:16:51.287Z,14.93
2022-08-26T08:19:23.875Z,15.60
2022-08-26T08:21:51.920Z,14.88
2022-08-26T08:24:19.172Z,18.00
2022-08-26T08:26:46.173Z,14.05
2022-08-26T08:29:13.196Z,10.70
2022-08-26T08:31:58.301Z,16.38
2022-08-26T08:34:28.869Z,12.55
2022-08-26T08:36:57.577Z,11.02
2022-08-26T08:39:25.514Z,14.10
2022-08-26T08:42:33.473Z,15.23
2022-08-26T08:45:09.553Z,11.32
2022-08-26T08:47:45.101Z,12.40
2022-08-26T08:50:53.973Z,12.43
2022-08-26T08:53:34.676Z,10.50
2022-08-26T08:56:29.235Z,11.23
2022-08-26T08:59:24.221Z,15.35
2022-08-26T09:02:22.350Z,9.85
2022-08-26T09:05:16.932Z,16.65
2022-08-26T09:08:02.578Z,12.68
2022-08-26T09:10:53.907Z,12.32
2022-08-26T09:13:26.206Z,14.13
2022-08-26T09:16:07.483Z,10.95
2022-08-26T09:19:20.409Z,12.43
2022-08-26T09:21:59.641Z,14.30
2022-08-26T09:24:29.965Z,11.90
2022-08-26T09:26:59.069Z,12.82
2022-08-26T09:29:28.921Z,13.32
2022-08-26T09:32:24.337Z,11.18
2022-08-26T09:35:07.735Z,10.23
2022-08-26T09:37:40.459Z,13.45
2022-08-26T09:40:27.018Z,10.77
2022-08-26T09:43:13.426Z,9.55
2022-08-26T09:45:50.815Z,13.38
2022-08-26T09:48:36.876Z,13.00
2022-08-26T09:51:28.637Z,9.88
2022-08-26T09:53:59.693Z,13.50
2022-08-26T09:56:38.312Z,21.58
2022-08-26T09:59:11.447Z,11.00
2022-08-26T10:01:44.707Z,14.52
2022-08-26T10:04:19.770Z,12.13
2022-08-26T10:07:08.142Z,14.88
2022-08-26T10:09:41.945Z,15.18
2022-08-26T10:12:17.314Z,11.60
2022-08-26T10:14:52.917Z,16.50
2022-08-26T10:17:34.353Z,16.70
2022-08-26T10:20:05.870Z,12.13
2022-08-26T10:23:12.867Z,10.15
2022-08-26T10:26:05.776Z,12.98
2022-08-26T10:28:45.847Z,9.10
2022-08-26T10:31:29.221Z,10.18
2022-08-26T10:34:00.081Z,11.18
2022-08-26T10:37:15.854Z,10.63
2022-08-26T10:39:49.163Z,11.63
2022-08-26T10:42:21.371Z,10.80
2022-08-26T10:44:53.045Z,11.75
2022-08-26T10:47:33.283Z,12.35
2022-08-26T10:50:03.391Z,12.25
2022-08-26T10:53:00.241Z,11.82
2022-08-26T10:55:43.504Z,12.18
2022-08-26T10:58:42.635Z,11.57
2022-08-26T11:01:43.046Z,18.42
2022-08-26T11:04:44.411Z,14.57
2022-08-26T11:07:33.368Z,14.05
2022-08-26T11:10:02.832Z,9.85
2022-08-26T11:12:38.212Z,12.68
2022-08-26T11:15:30.878Z,10.02
2022-08-26T11:18:05.516Z,11.00
2022-08-26T11:20:44.811Z,13.02
2022-08-26T11:23:12.692Z,12.07
2022-08-26T11:25:58.891Z,15.63
2022-08-26T11:28:50.790Z,11.85
2022-08-26T11:31:18.925Z,14.63
2022-08-26T11:33:48.758Z,15.60
2022-08-26T11:36:56.891Z,11.70
2022-08-26T11:39:52.643Z,12.27
2022-08-26T11:42:42.716Z,13.40
2022-08-26T11:45:38.932Z,14.60
2022-08-26T11:48:19.280Z,13.23
2022-08-26T11:51:08.564Z,14.77
2022-08-26T11:53:42.589Z,11.40
2022-08-26T11:56:33.168Z,11.65
2022-08-26T11:59:03.418Z,14.98
2022-08-26T12:01:36.590Z,13.38
2022-08-26T12:04:07.743Z,13.15
2022-08-26T12:06:45.851Z,14.32
2022-08-26T12:09:27.401Z,14.10
2022-08-26T12:12:17.786Z,12.98
2022-08-26T12:14:45.338Z,12.30
2022-08-26T12:17:17.609Z,11.68
2022-08-26T12:19:46.469Z,10.18
2022-08-26T12:22:38.729Z,10.93
2022-08-26T12:25:11.256Z,10.45
2022-08-26T12:27:42.760Z,13.27
2022-08-26T12:30:19.990Z,13.07
2022-08-26T12:33:22.445Z,12.02
2022-08-26T12:35:56.209Z,14.95
2022-08-26T12:38:26.075Z,8.02
2022-08-26T12:40:53.237Z,14.35
2022-08-26T12:43:45.028Z,14.98
2022-08-26T12:46:17.021Z,12.38
2022-08-26T12:48:49.007Z,13.93
2022-08-26T12:51:35.261Z,10.50
2022-08-26T12:54:06.646Z,14.55
2022-08-26T12:56:39.425Z,14.05
2022-08-26T12:59:25.085Z,10.68
2022-08-26T13:01:53.439Z,11.98
2022-08-26T13:04:41.387Z,8.32
2022-08-26T13:07:23.265Z,11.15
2022-08-26T13:09:53.464Z,10.45
2022-08-26T13:12:29.426Z,11.75
2022-08-26T13:14:58.728Z,11.05
2022-08-26T13:17:27.605Z,10.95
2022-08-26T13:19:54.600Z,10.65
2022-08-26T13:22:24.320Z,11.35
2022-08-26T13:24:56.185Z,10.07
2022-08-26T13:27:26.162Z,10.60
2022-08-26T13:29:54.905Z,11.55
2022-08-26T13:32:23.786Z,9.95
2022-08-26T13:34:56.475Z,11.07
2022-08-26T13:37:24.330Z,13.18
2022-08-26T13:40:07.492Z,10.82
2022-08-26T13:42:34.708Z,10.55
2022-08-26T13:45:02.041Z,11.68
2022-08-26T13:47:28.924Z,12.20
2022-08-26T13:49:56.323Z,10.65
2022-08-26T13:52:30.102Z,10.68
2022-08-26T13:55:00.092Z,13.73
2022-08-26T13:57:28.432Z,11.35
2022-08-26T13:59:57.067Z,10.75
2022-08-26T14:02:24.100Z,10.68
2022-08-26T14:04:51.664Z,15.13
2022-08-26T14:07:18.557Z,8.57
2022-08-26T14:09:45.491Z,10.55
2022-08-26T14:12:12.340Z,13.50
2022-08-26T14:14:39.186Z,14.02
2022-08-26T14:17:06.973Z,12.38
2022-08-26T14:19:33.838Z,16.40
2022-08-26T14:22:01.684Z,13.20
2022-08-26T14:24:28.941Z,14.18
2022-08-26T14:26:55.964Z,15.52
2022-08-26T14:29:22.822Z,11.05
2022-08-26T14:31:49.709Z,14.40
2022-08-26T14:34:16.724Z,13.73
2022-08-26T14:36:43.805Z,16.10
2022-08-26T14:39:14.231Z,12.50
2022-08-26T14:41:55.840Z,12.02
2022-08-26T14:44:28.186Z,8.10
2022-08-26T14:46:55.356Z,14.48
2022-08-26T14:49:24.405Z,13.60
2022-08-26T14:51:51.292Z,12.18
2022-08-26T14:54:20.265Z,11.77
2022-08-26T14:57:04.944Z,15.95
2022-08-26T14:59:42.200Z,13.27
2022-08-26T15:02:13.920Z,12.98
2022-08-26T15:04:59.088Z,12.32
2022-08-26T15:07:25.919Z,13.00
2022-08-26T15:09:53.092Z,8.57
2022-08-26T15:12:19.968Z,11.32
2022-08-26T15:14:46.838Z,12.48
2022-08-26T15:17:13.680Z,12.80
2022-08-26T15:19:40.507Z,9.48
2022-08-26T15:22:07.366Z,14.18
2022-08-26T15:24:41.526Z,11.00
2022-08-26T15:27:09.012Z,8.40
2022-08-26T15:29:36.615Z,12.65
2022-08-26T15:32:04.467Z,16.48
2022-08-26T15:34:31.996Z,20.50
2022-08-26T15:36:58.820Z,12.70
2022-08-26T15:39:25.853Z,11.18
2022-08-26T15:41:52.699Z,11.13
2022-08-26T15:44:19.690Z,8.68
2022-08-26T15:46:49.582Z,14.75
2022-08-26T15:49:18.468Z,12.13
2022-08-26T15:51:46.959Z,13.35
2022-08-26T15:54:16.595Z,12.80
2022-08-26T15:56:44.230Z,11.07
2022-08-26T15:59:11.756Z,11.35
2022-08-26T16:01:39.685Z,12.15
2022-08-26T16:04:07.506Z,16.33
2022-08-26T16:06:37.921Z,13.82
2022-08-26T16:09:06.368Z,13.80
2022-08-26T16:11:35.862Z,11.55
2022-08-26T16:14:04.554Z,9.95
2022-08-26T16:16:32.168Z,10.35
2022-08-26T16:19:00.613Z,12.60
2022-08-26T16:21:32.208Z,10.73
2022-08-26T16:23:59.744Z,10.50
2022-08-26T16:26:32.457Z,9.43
2022-08-26T16:29:04.422Z,14.35
2022-08-26T16:31:31.340Z,13.82
2022-08-26T16:33:58.318Z,11.82
2022-08-26T16:36:25.187Z,9.80
2022-08-26T16:38:56.234Z,11.20
2022-08-26T16:41:25.769Z,13.70
2022-08-26T16:43:53.254Z,12.98
2022-08-26T16:46:22.137Z,13.77
2022-08-26T16:48:49.462Z,11.80
2022-08-26T16:51:19.054Z,9.68
2022-08-26T16:53:46.265Z,14.70
2022-08-26T16:56:19.962Z,14.00
2022-08-26T16:58:48.233Z,13.48
2022-08-26T17:01:16.605Z,16.85
2022-08-26T17:03:43.657Z,14.05
2022-08-26T17:06:10.626Z,13.70
2022-08-26T17:08:39.217Z,12.88
2022-08-26T17:11:06.960Z,12.50
2022-08-26T17:13:36.102Z,12.05
2022-08-26T17:16:05.806Z,11.35
2022-08-26T17:18:33.815Z,18.60
2022-08-26T17:21:08.441Z,9.27
2022-08-26T17:23:38.237Z,14.52
2022-08-26T17:26:05.471Z,13.18
2022-08-26T17:28:32.679Z,11.70
2022-08-26T17:30:59.849Z,12.37
2022-08-26T17:33:27.223Z,12.27
2022-08-26T17:35:55.713Z,11.02
2022-08-26T17:38:23.625Z,13.73
2022-08-26T17:40:51.375Z,14.60
2022-08-26T17:43:19.046Z,11.43
2022-08-26T17:45:46.136Z,12.87
2022-08-26T17:48:13.035Z,8.77
2022-08-26T17:50:42.342Z,10.73
2022-08-26T17:53:17.800Z,11.27
2022-08-26T17:55:50.276Z,15.07
2022-08-26T17:58:22.717Z,10.80
2022-08-26T18:00:52.244Z,10.37
2022-08-26T18:03:19.230Z,12.83
2022-08-26T18:05:52.013Z,13.33
2022-08-26T18:08:20.216Z,13.30
2022-08-26T18:10:47.645Z,10.17
2022-08-26T18:13:15.352Z,13.57
2022-08-26T18:15:44.085Z,11.63
2022-08-26T18:18:12.935Z,10.70
2022-08-26T18:20:42.231Z,12.37
2022-08-26T18:23:09.745Z,13.00
2022-08-26T18:25:41.501Z,10.03
2022-08-26T18:28:09.217Z,11.47
2022-08-26T18:30:36.300Z,12.50
2022-08-26T18:33:03.459Z,12.40
2022-08-26T18:35:30.641Z,16.23
2022-08-26T18:38:01.409Z,12.60
2022-08-26T18:40:44.020Z,10.20
2022-08-26T18:43:11.621Z,10.83
2022-08-26T18:45:38.764Z,8.40
2022-08-26T18:48:06.117Z,10.40
2022-08-26T18:50:33.348Z,12.73
2022-08-26T18:53:02.430Z,10.27
2022-08-26T18:55:29.309Z,13.70
2022-08-26T18:57:56.181Z,14.83
2022-08-26T19:00:23.722Z,14.13
2022-08-26T19:02:51.988Z,14.60
2022-08-26T19:05:22.784Z,13.53
2022-08-26T19:07:49.611Z,11.57
2022-08-26T19:10:16.591Z,13.70
2022-08-26T19:12:43.891Z,12.07
2022-08-26T19:15:11.457Z,14.30
2022-08-26T19:17:38.405Z,16.87
2022-08-26T19:20:06.498Z,15.73
2022-08-26T19:22:33.481Z,12.53
2022-08-26T19:25:01.243Z,14.47
2022-08-26T19:27:28.224Z,13.43
2022-08-26T19:29:56.359Z,16.60
2022-08-26T19:32:24.459Z,14.97
2022-08-26T19:34:54.674Z,13.93
2022-08-26T19:37:21.978Z,17.00
2022-08-26T19:39:49.060Z,16.17
2022-08-26T19:42:16.550Z,16.13
2022-08-26T19:45:02.056Z,16.67
2022-08-26T19:47:28.933Z,18.53
2022-08-26T19:49:56.347Z,15.70
2022-08-26T19:52:24.259Z,15.17
2022-08-26T19:54:57.541Z,14.47
2022-08-26T19:57:24.402Z,14.10
2022-08-26T19:59:51.225Z,14.53
2022-08-26T20:02:18.154Z,17.90
2022-08-26T20:04:45.760Z,17.27
2022-08-26T20:07:18.077Z,16.27
2022-08-26T20:09:47.004Z,17.40
2022-08-26T20:12:15.356Z,15.70
2022-08-26T20:14:42.289Z,15.63
2022-08-26T20:17:09.253Z,19.50
2022-08-26T20:19:54.993Z,18.40
2022-08-26T20:22:22.599Z,15.27
2022-08-26T20:24:49.769Z,15.70
2022-08-26T20:27:16.610Z,16.57
2022-08-26T20:29:43.569Z,15.67
2022-08-26T20:32:12.029Z,13.17
2022-08-26T20:34:39.979Z,15.53
2022-08-26T20:37:08.379Z,16.70
2022-08-26T20:39:35.723Z,17.30
2022-08-26T20:42:03.185Z,15.10
2022-08-26T20:44:30.161Z,15.30
2022-08-26T20:46:59.048Z,18.40
2022-08-26T20:49:27.996Z,16.20
2022-08-26T20:51:55.372Z,14.27
2022-08-26T20:54:28.263Z,14.43
2022-08-26T20:56:57.516Z,16.07
2022-08-26T20:59:25.485Z,16.27
2022-08-26T21:01:53.027Z,18.67
2022-08-26T21:04:24.065Z,18.07
2022-08-26T21:06:52.609Z,16.93
2022-08-26T21:09:21.915Z,18.67
2022-08-26T21:11:49.945Z,17.97
2022-08-26T21:14:17.524Z,20.67
2022-08-26T21:16:46.401Z,19.43
2022-08-26T21:19:17.886Z,24.73
2022-08-26T21:21:46.998Z,17.10
2022-08-26T21:24:14.545Z,18.47
2022-08-26T21:26:42.185Z,16.27
2022-08-26T21:29:09.819Z,18.57
2022-08-26T21:31:43.515Z,14.67
2022-08-26T21:34:13.217Z,15.70
2022-08-26T21:36:40.197Z,17.27
2022-08-26T21:39:11.434Z,17.37
2022-08-26T21:41:40.696Z,14.57
2022-08-26T21:44:08.426Z,15.47
2022-08-26T21:46:37.194Z,16.87
2022-08-26T21:49:09.921Z,16.70
2022-08-26T21:51:41.272Z,16.53
2022-08-26T21:54:11.264Z,14.90
2022-08-26T21:56:44.207Z,14.07
2022-08-26T21:59:11.794Z,16.33
2022-08-26T22:01:38.857Z,19.10
2022-08-26T22:04:08.978Z,15.33
2022-08-26T22:06:47.681Z,16.80
2022-08-26T22:09:19.692Z,15.10
2022-08-26T22:11:47.344Z,13.80
2022-08-26T22:14:16.494Z,17.27
2022-08-26T22:16:50.178Z,16.43
2022-08-26T22:19:19.912Z,15.67
2022-08-26T22:21:51.164Z,12.53
2022-08-26T22:24:19.582Z,12.33
2022-08-26T22:26:48.015Z,13.47
2022-08-26T22:29:15.997Z,11.00
2022-08-26T22:31:43.165Z,10.60
2022-08-26T22:34:15.613Z,12.00
2022-08-26T22:36:46.729Z,12.70
2022-08-26T22:39:17.342Z,13.73
2022-08-26T22:41:48.504Z,14.40
2022-08-26T22:44:17.914Z,13.77
2022-08-26T22:46:47.362Z,14.57
2022-08-26T22:49:17.989Z,15.67
2022-08-26T22:51:45.774Z,12.90
2022-08-26T22:54:14.090Z,14.73
2022-08-26T22:56:41.319Z,14.00
2022-08-26T22:59:08.967Z,12.07
2022-08-26T23:01:39.123Z,10.40
2022-08-26T23:04:07.502Z,11.80
2022-08-26T23:06:37.816Z,12.20
2022-08-26T23:09:06.583Z,13.63
2022-08-26T23:11:34.551Z,12.70
2022-08-26T23:14:02.306Z,12.60
2022-08-26T23:16:41.445Z,11.17
2022-08-26T23:19:13.586Z,10.23
2022-08-26T23:21:40.967Z,10.53
2022-08-26T23:24:09.052Z,12.87
2022-08-26T23:26:36.788Z,11.70
2022-08-26T23:29:05.351Z,10.37
2022-08-26T23:31:32.735Z,12.73
2022-08-26T23:34:19.131Z,11.07
2022-08-26T23:36:46.353Z,11.17
2022-08-26T23:39:14.626Z,12.37
2022-08-26T23:41:42.152Z,13.07
2022-08-26T23:44:08.982Z,9.30
2022-08-26T23:46:36.522Z,15.07
2022-08-26T23:49:06.097Z,10.30
2022-08-26T23:51:51.356Z,9.77
2022-08-26T23:54:19.486Z,11.10
2022-08-26T23:56:46.791Z,8.60
2022-08-26T23:59:13.689Z,11.30
